createdAt,value
2022-09-24T07:15:12.153Z,73.30
2022-09-24T07:17:39.405Z,71.60
2022-09-24T07:20:06.967Z,73.70
2022-09-24T07:22:42.650Z,65.50
2022-09-24T07:25:18.364Z,67.50
2022-09-24T07:27:49.232Z,65.90
2022-09-24T08:08:51.522Z,56.00
2022-09-24T08:11:23.337Z,60.50
2022-09-24T08:13:51.167Z,54.30
2022-09-24T08:16:23.560Z,56.40
2022-09-24T08:18:50.933Z,49.80
2022-09-24T08:21:23.194Z,46.00
2022-09-24T08:23:56.833Z,49.40
2022-09-24T09:14:37.021Z,1.00
2022-09-24T09:18:42.798Z,1.00
2022-09-24T10:48:59.306Z,1.00
2022-09-24T10:57:17.608Z,1.00
2022-09-24T11:14:14.740Z,1.00
2022-09-24T11:21:38.636Z,1.00
2022-09-24T11:28:52.457Z,1.00
2022-09-24T11:32:16.801Z,1.00
2022-09-24T11:35:21.142Z,1.00
2022-09-24T11:38:54.865Z,1.00
2022-09-24T12:14:57.135Z,1.00
2022-09-24T12:18:06.765Z,1.00
2022-09-24T12:20:50.044Z,1.00
2022-09-24T12:26:09.382Z,1.00
2022-09-24T12:33:20.759Z,1.00
2022-09-24T12:35:58.406Z,1.00
2022-09-24T12:38:31.434Z,1.00
2022-09-24T12:41:32.454Z,1.00
2022-09-24T12:44:08.304Z,1.00
2022-09-24T12:47:08.922Z,1.00
2022-09-24T12:49:51.090Z,1.00
2022-09-24T12:52:31.798Z,1.00
2022-09-24T12:55:04.499Z,1.00
2022-09-24T12:58:24.490Z,1.00
2022-09-24T13:04:25.493Z,1.00
2022-09-24T13:06:58.904Z,1.00
2022-09-24T13:09:40.662Z,1.00
2022-09-24T13:12:17.896Z,1.00
2022-09-24T13:15:04.504Z,1.00
2022-09-24T13:17:34.216Z,1.00
2022-09-24T13:20:08.399Z,1.00
2022-09-24T13:22:39.557Z,1.00
2022-09-24T13:34:36.388Z,1.00
2022-09-24T13:37:23.253Z,1.00
2022-09-24T13:40:14.121Z,1.00
